KCEW/CEW METAR and TAF weather

Enter ICAO airport designator
Station Type Date Time Source
KCEW METAR 2021/07/29 18:53 UTC NOAA

KCEW 291853Z AUTO VRB03KT 10SM FEW040 35/25 A3002 RMK AO2 SLP160 T03500250


Station Type Date Time Source
KCEW Decoded METAR 2021/07/29 18:53 UTC NOAA

CRESTVIEW SIKES AIRPORT, FL, United States (KCEW) 30-46N 086-31W 55M
Jul 29, 2021 - 02:53 PM EDT / 2021.07.29 1853 UTC
Wind: Variable at 3 MPH (3 KT):0
Visibility: 10 mile(s):0
Sky conditions: mostly clear
Temperature: 95.0 F (35.0 C)
Heat index: 109.8 F (43.2 C):1
Dew Point: 77.0 F (25.0 C)
Relative Humidity: 56%
Pressure (altimeter): 30.02 in. Hg (1016 hPa)
ob: KCEW 291853Z AUTO VRB03KT 10SM FEW040 35/25 A3002 RMK AO2 SLP160 T03500250
cycle: 19

Station Type Date Time Source
KCEW TAF UTC NOAA

Error!

Example: see airport list